createdAt,value
2024-01-04T00:00:51.898Z,94536.84
2024-01-04T00:01:53.402Z,94548.25
2024-01-04T00:02:54.999Z,94537.28
2024-01-04T00:03:56.638Z,94543.59
2024-01-04T00:04:58.594Z,94545.59
2024-01-04T00:06:00.113Z,94534.22
2024-01-04T00:07:01.656Z,94544.22
2024-01-04T00:08:03.279Z,94540.56
2024-01-04T00:09:04.776Z,94549.09
2024-01-04T00:10:07.183Z,94543.41
2024-01-04T00:11:08.765Z,94548.69
2024-01-04T00:12:10.770Z,94546.84
2024-01-04T00:13:12.356Z,94556.22
2024-01-04T00:14:13.882Z,94551.16
2024-01-04T00:15:15.581Z,94558.47
2024-01-04T00:16:17.100Z,94559.28
2024-01-04T00:17:18.749Z,94560.53
2024-01-04T00:18:20.369Z,94564.97
2024-01-04T00:19:22.037Z,94565.78
2024-01-04T00:20:25.694Z,94554.97
2024-01-04T00:21:27.231Z,94559.28
2024-01-04T00:22:28.704Z,94561.50
2024-01-04T00:23:32.580Z,94553.97
2024-01-04T00:24:34.059Z,94560.50
2024-01-04T00:25:35.546Z,94562.75
2024-01-04T00:26:37.023Z,94558.06
2024-01-04T00:27:38.626Z,94556.22
2024-01-04T00:28:40.182Z,94572.09
2024-01-04T00:29:43.680Z,94568.06
2024-01-04T00:30:45.197Z,94563.78
2024-01-04T00:31:46.961Z,94569.06
2024-01-04T00:32:48.619Z,94568.84
2024-01-04T00:33:50.313Z,94564.19
2024-01-04T00:34:52.681Z,94575.00
2024-01-04T00:35:54.219Z,94577.63
2024-01-04T00:36:56.877Z,94580.66
2024-01-04T00:37:58.720Z,94581.72
2024-01-04T00:39:00.382Z,94580.28
2024-01-04T00:40:01.927Z,94574.56
2024-01-04T00:41:03.848Z,94579.66
2024-01-04T00:42:05.353Z,94579.88
2024-01-04T00:43:06.872Z,94573.75
2024-01-04T00:44:08.304Z,94589.25
2024-01-04T00:45:10.878Z,94577.81
2024-01-04T00:46:12.406Z,94582.09
2024-01-04T00:47:14.027Z,94573.94
2024-01-04T00:48:15.788Z,94580.66
2024-01-04T00:49:17.539Z,94579.25
2024-01-04T00:50:19.017Z,94585.16
2024-01-04T00:51:20.544Z,94593.72
2024-01-04T00:52:22.013Z,94594.13
2024-01-04T00:53:23.515Z,94599.22
2024-01-04T00:54:25.385Z,94589.63
2024-01-04T00:55:27.008Z,94595.16
2024-01-04T00:56:33.066Z,94592.91
2024-01-04T00:57:34.617Z,94603.09
2024-01-04T00:58:36.146Z,94587.41
2024-01-04T00:59:37.694Z,94604.09
2024-01-04T01:00:39.248Z,94594.53
2024-01-04T01:01:41.977Z,94587.41
2024-01-04T01:02:43.525Z,94606.97
2024-01-04T01:03:45.001Z,94591.06
2024-01-04T01:04:46.532Z,94606.75
2024-01-04T01:05:48.100Z,94601.25
2024-01-04T01:06:49.847Z,94594.72
2024-01-04T01:07:51.444Z,94598.59
2024-01-04T01:08:53.044Z,94601.25
2024-01-04T01:09:54.551Z,94601.25
2024-01-04T01:10:56.864Z,94599.03
2024-01-04T01:11:58.550Z,94599.66
2024-01-04T01:13:00.089Z,94596.56
2024-01-04T01:14:01.581Z,94595.34
2024-01-04T01:15:03.325Z,94604.53
2024-01-04T01:16:04.895Z,94606.97
2024-01-04T01:17:06.414Z,94606.16
2024-01-04T01:18:08.491Z,94605.13
2024-01-04T01:19:10.130Z,94610.03
2024-01-04T01:20:12.302Z,94608.59
2024-01-04T01:21:13.841Z,94612.69
2024-01-04T01:22:15.331Z,94623.50
2024-01-04T01:23:17.375Z,94617.34
2024-01-04T01:24:18.966Z,94617.97
2024-01-04T01:25:20.695Z,94620.63
2024-01-04T01:26:22.182Z,94623.66
2024-01-04T01:27:23.907Z,94627.75
2024-01-04T01:28:25.459Z,94626.72
2024-01-04T01:29:26.978Z,94616.75
2024-01-04T01:30:30.383Z,94623.50
2024-01-04T01:31:32.051Z,94625.91
2024-01-04T01:32:33.617Z,94632.66
2024-01-04T01:33:35.254Z,94631.22
2024-01-04T01:34:36.978Z,94635.91
2024-01-04T01:35:38.518Z,94636.72
2024-01-04T01:36:43.047Z,94637.34
2024-01-04T01:37:44.460Z,94639.16
2024-01-04T01:38:45.995Z,94643.88
2024-01-04T01:39:47.529Z,94643.25
2024-01-04T01:40:49.034Z,94653.41
2024-01-04T01:41:53.359Z,94658.31
2024-01-04T01:42:54.892Z,94657.09
2024-01-04T01:43:56.583Z,94667.91
2024-01-04T01:44:58.101Z,94662.59
2024-01-04T01:45:59.661Z,94670.13
2024-01-04T01:47:01.287Z,94684.00
2024-01-04T01:48:03.601Z,94681.56
2024-01-04T01:49:05.568Z,94684.63
2024-01-04T01:50:08.716Z,94695.41
2024-01-04T01:51:11.363Z,94693.97
2024-01-04T01:52:13.452Z,94701.34
2024-01-04T01:53:15.871Z,94700.91
2024-01-04T01:54:17.820Z,94695.81
2024-01-04T01:55:20.928Z,94702.78
2024-01-04T01:56:22.517Z,94711.53
2024-01-04T01:57:25.843Z,94718.03
2024-01-04T01:58:28.267Z,94711.53
2024-01-04T01:59:29.949Z,94716.22
2024-01-04T02:00:32.390Z,94716.81
2024-01-04T02:01:33.906Z,94712.13
2024-01-04T02:02:35.543Z,94717.22
2024-01-04T02:03:37.312Z,94708.03
2024-01-04T02:04:40.685Z,94715.94
2024-01-04T02:05:42.388Z,94718.03
2024-01-04T02:06:44.154Z,94713.50
2024-01-04T02:07:46.685Z,94703.91
2024-01-04T02:08:50.410Z,94698.63
2024-01-04T02:09:52.360Z,94701.44
2024-01-04T02:10:53.892Z,94702.25
2024-01-04T02:12:06.784Z,94691.44
2024-01-04T02:13:10.428Z,94693.72
2024-01-04T02:14:12.031Z,94698.59
2024-01-04T02:15:13.759Z,94718.13
2024-01-04T02:16:15.234Z,94719.16
2024-01-04T02:17:16.821Z,94711.22
2024-01-04T02:18:18.972Z,94706.97
2024-01-04T02:19:21.080Z,94718.59
2024-01-04T02:20:22.614Z,94725.28
2024-01-04T02:21:24.061Z,94727.75
2024-01-04T02:22:26.113Z,94717.34
2024-01-04T02:23:27.647Z,94736.91
2024-01-04T02:24:29.198Z,94721.19
2024-01-04T02:25:30.746Z,94733.44
2024-01-04T02:26:32.271Z,94734.44
2024-01-04T02:27:33.815Z,94746.69
2024-01-04T02:28:35.284Z,94746.84
2024-01-04T02:29:36.747Z,94745.84
2024-01-04T02:30:38.305Z,94755.00
2024-01-04T02:31:39.858Z,94760.72
2024-01-04T02:32:42.206Z,94759.28
2024-01-04T02:33:43.959Z,94758.69
2024-01-04T02:34:45.473Z,94761.88
2024-01-04T02:35:47.037Z,94757.59
2024-01-04T02:36:48.637Z,94766.19
2024-01-04T02:37:50.204Z,94762.72
2024-01-04T02:38:51.685Z,94766.16
2024-01-04T02:39:53.216Z,94761.06
2024-01-04T02:40:55.699Z,94769.19
2024-01-04T02:41:57.300Z,94771.41
2024-01-04T02:42:58.734Z,94772.19
2024-01-04T02:44:00.267Z,94774.59
2024-01-04T02:45:02.445Z,94787.03
2024-01-04T02:46:04.147Z,94790.47
2024-01-04T02:47:05.710Z,94796.97
2024-01-04T02:48:07.588Z,94780.69
2024-01-04T02:49:09.638Z,94784.75
2024-01-04T02:50:12.938Z,94785.69
2024-01-04T02:51:14.516Z,94802.78
2024-01-04T02:52:17.169Z,94795.63
2024-01-04T02:53:18.723Z,94788.28
2024-01-04T02:54:20.202Z,94793.78
2024-01-04T02:55:21.761Z,94803.72
2024-01-04T02:56:23.252Z,94805.94
2024-01-04T02:57:24.738Z,94793.13
2024-01-04T02:58:27.485Z,94806.56
2024-01-04T02:59:29.034Z,94806.94
2024-01-04T03:00:30.493Z,94797.16
2024-01-04T03:01:31.969Z,94800.03
2024-01-04T03:02:33.508Z,94798.97
2024-01-04T03:03:35.163Z,94796.25
2024-01-04T03:04:37.815Z,94792.63
2024-01-04T03:05:39.467Z,94794.50
2024-01-04T03:06:40.995Z,94789.34
2024-01-04T03:07:42.419Z,94789.56
2024-01-04T03:08:43.917Z,94799.53
2024-01-04T03:09:45.445Z,94801.56
2024-01-04T03:10:47.115Z,94798.91
2024-01-04T03:11:48.661Z,94792.19
2024-01-04T03:12:50.141Z,94802.44
2024-01-04T03:13:51.609Z,94798.53
2024-01-04T03:14:53.414Z,94795.47
2024-01-04T03:15:54.885Z,94791.47
2024-01-04T03:16:56.399Z,94789.22
2024-01-04T03:17:58.052Z,94805.69
2024-01-04T03:18:59.874Z,94795.97
2024-01-04T03:20:01.461Z,94788.56
2024-01-04T03:21:03.866Z,94798.97
2024-01-04T03:22:05.329Z,94798.16
2024-01-04T03:23:06.761Z,94791.66
2024-01-04T03:24:08.436Z,94798.41
2024-01-04T03:25:10.817Z,94802.31
2024-01-04T03:26:13.904Z,94806.28
2024-01-04T03:27:15.412Z,94797.75
2024-01-04T03:28:16.860Z,94795.13
2024-01-04T03:29:18.367Z,94790.22
2024-01-04T03:30:21.210Z,94786.13
2024-01-04T03:31:22.971Z,94786.94
2024-01-04T03:32:24.554Z,94796.97
2024-01-04T03:33:26.202Z,94780.09
2024-01-04T03:34:29.621Z,94778.84
2024-01-04T03:35:31.236Z,94781.91
2024-01-04T03:36:32.714Z,94784.59
2024-01-04T03:37:34.226Z,94773.97
2024-01-04T03:38:35.814Z,94783.78
2024-01-04T03:39:37.239Z,94786.50
2024-01-04T03:40:39.055Z,94782.00
2024-01-04T03:41:40.852Z,94780.59
2024-01-04T03:42:42.809Z,94785.88
2024-01-04T03:43:44.342Z,94785.50
2024-01-04T03:44:45.953Z,94786.94
2024-01-04T03:45:47.741Z,94786.16
2024-01-04T03:46:49.251Z,94786.34
2024-01-04T03:47:50.982Z,94793.28
2024-01-04T03:48:53.158Z,94786.31
2024-01-04T03:49:54.796Z,94789.78
2024-01-04T03:50:56.316Z,94785.09
2024-01-04T03:51:57.823Z,94790.03
2024-01-04T03:52:59.297Z,94792.69
2024-01-04T03:54:01.279Z,94798.56
2024-01-04T03:55:02.892Z,94802.22
2024-01-04T03:56:05.270Z,94792.28
2024-01-04T03:57:06.736Z,94802.03
2024-01-04T03:58:08.193Z,94809.81
2024-01-04T03:59:09.657Z,94815.09
2024-01-04T04:00:13.244Z,94810.56
2024-01-04T04:01:14.864Z,94812.63
2024-01-04T04:02:16.318Z,94812.00
2024-01-04T04:03:19.558Z,94808.16
2024-01-04T04:04:21.613Z,94811.81
2024-01-04T04:05:23.239Z,94818.75
2024-01-04T04:06:24.830Z,94808.56
2024-01-04T04:07:26.503Z,94810.22
2024-01-04T04:08:27.945Z,94815.94
2024-01-04T04:09:29.630Z,94811.50
2024-01-04T04:10:31.157Z,94824.94
2024-01-04T04:11:32.724Z,94821.09
2024-01-04T04:12:34.227Z,94827.00
2024-01-04T04:13:35.961Z,94825.78
2024-01-04T04:14:37.457Z,94831.09
2024-01-04T04:15:39.029Z,94833.72
2024-01-04T04:16:41.691Z,94831.31
2024-01-04T04:17:43.430Z,94823.59
2024-01-04T04:18:45.412Z,94830.47
2024-01-04T04:19:47.488Z,94832.53
2024-01-04T04:20:49.010Z,94826.59
2024-01-04T04:21:51.475Z,94832.13
2024-01-04T04:22:53.107Z,94823.59
2024-01-04T04:23:54.599Z,94836.88
2024-01-04T04:24:56.108Z,94828.91
2024-01-04T04:25:58.409Z,94834.06
2024-01-04T04:26:59.959Z,94835.06
2024-01-04T04:28:01.449Z,94840.50
2024-01-04T04:29:02.885Z,94833.38
2024-01-04T04:30:05.502Z,94836.47
2024-01-04T04:31:12.760Z,94834.88
2024-01-04T04:32:14.433Z,94844.66
2024-01-04T04:33:15.974Z,94844.06
2024-01-04T04:34:17.641Z,94849.16
2024-01-04T04:35:19.167Z,94842.44
2024-01-04T04:36:20.841Z,94841.81
2024-01-04T04:37:22.356Z,94839.56
2024-01-04T04:38:23.905Z,94836.09
2024-01-04T04:39:25.576Z,94834.25
2024-01-04T04:40:27.184Z,94829.81
2024-01-04T04:41:28.993Z,94834.69
2024-01-04T04:42:30.417Z,94831.22
2024-01-04T04:43:33.984Z,94836.91
2024-01-04T04:44:35.534Z,94833.88
2024-01-04T04:45:37.095Z,94836.72
2024-01-04T04:46:38.631Z,94836.31
2024-01-04T04:47:40.197Z,94830.78
2024-01-04T04:48:41.921Z,94836.72
2024-01-04T04:49:43.617Z,94826.72
2024-01-04T04:50:45.155Z,94847.50
2024-01-04T04:51:49.976Z,94831.22
2024-01-04T04:52:51.647Z,94830.97
2024-01-04T04:53:53.195Z,94840.56
2024-01-04T04:54:54.784Z,94849.06
2024-01-04T04:55:56.339Z,94844.81
2024-01-04T04:56:58.051Z,94848.88
2024-01-04T04:57:59.719Z,94842.53
2024-01-04T04:59:01.242Z,94860.41
2024-01-04T05:00:02.863Z,94862.66
2024-01-04T05:01:04.421Z,94863.03
2024-01-04T05:02:05.959Z,94855.91
2024-01-04T05:03:07.570Z,94863.66
2024-01-04T05:04:09.261Z,94872.44
2024-01-04T05:05:10.801Z,94883.69
2024-01-04T05:06:12.417Z,94875.34
2024-01-04T05:07:13.949Z,94876.75
2024-01-04T05:08:15.444Z,94879.44
2024-01-04T05:09:18.781Z,94882.69
2024-01-04T05:10:20.831Z,94893.47
2024-01-04T05:11:22.322Z,94890.63
2024-01-04T05:12:23.780Z,94893.88
2024-01-04T05:13:25.299Z,94895.91
2024-01-04T05:14:27.077Z,94898.56
2024-01-04T05:15:28.580Z,94899.00
2024-01-04T05:16:31.033Z,94906.34
2024-01-04T05:17:32.603Z,94902.06
2024-01-04T05:18:34.119Z,94895.19
2024-01-04T05:19:35.743Z,94894.13
2024-01-04T05:20:37.357Z,94893.72
2024-01-04T05:21:39.128Z,94898.41
2024-01-04T05:22:40.628Z,94906.16
2024-01-04T05:23:42.084Z,94899.00
2024-01-04T05:24:43.525Z,94901.69
2024-01-04T05:25:45.724Z,94905.16
2024-01-04T05:26:47.198Z,94904.47
2024-01-04T05:27:48.928Z,94917.75
2024-01-04T05:28:50.439Z,94907.13
2024-01-04T05:29:52.026Z,94906.56
2024-01-04T05:30:53.625Z,94910.06
2024-01-04T05:31:55.197Z,94913.25
2024-01-04T05:32:56.991Z,94904.47
2024-01-04T05:33:58.728Z,94910.56
2024-01-04T05:35:00.411Z,94914.84
2024-01-04T05:36:01.905Z,94903.81
2024-01-04T05:37:03.825Z,94911.00
2024-01-04T05:38:05.298Z,94919.88
2024-01-04T05:39:06.876Z,94917.00
2024-01-04T05:40:09.006Z,94912.53
2024-01-04T05:41:11.092Z,94911.34
2024-01-04T05:42:13.563Z,94918.25
2024-01-04T05:43:15.109Z,94916.84
2024-01-04T05:44:16.743Z,94921.34
2024-01-04T05:45:18.306Z,94918.75
2024-01-04T05:46:19.973Z,94918.88
2024-01-04T05:47:21.609Z,94919.50
2024-01-04T05:48:24.058Z,94928.88
2024-01-04T05:49:25.846Z,94918.06
2024-01-04T05:50:27.629Z,94910.75
2024-01-04T05:51:41.692Z,94923.59
2024-01-04T05:52:44.628Z,94928.44
2024-01-04T05:53:46.190Z,94925.44
2024-01-04T05:54:47.696Z,94930.09
2024-01-04T05:55:49.189Z,94930.28
2024-01-04T05:56:50.753Z,94936.38
2024-01-04T05:57:52.313Z,94937.22
2024-01-04T05:58:53.913Z,94937.84
2024-01-04T05:59:55.496Z,94943.72
2024-01-04T06:00:57.147Z,94952.09
2024-01-04T06:01:58.860Z,94963.56
2024-01-04T06:03:00.372Z,94968.41
2024-01-04T06:04:01.973Z,94956.44
2024-01-04T06:05:03.769Z,94959.66
2024-01-04T06:06:05.501Z,94959.28
2024-01-04T06:07:06.980Z,94973.16
2024-01-04T06:08:08.416Z,94961.72
2024-01-04T06:09:09.974Z,94964.13
2024-01-04T06:10:11.486Z,94965.16
2024-01-04T06:11:13.065Z,94960.53
2024-01-04T06:12:14.581Z,94968.28
2024-01-04T06:13:16.150Z,94969.66
2024-01-04T06:14:18.109Z,94971.38
2024-01-04T06:15:19.994Z,94969.28
2024-01-04T06:16:21.504Z,94985.59
2024-01-04T06:17:23.019Z,94987.88
2024-01-04T06:18:24.636Z,94984.59
2024-01-04T06:19:30.439Z,94992.09
2024-01-04T06:20:32.030Z,94990.66
2024-01-04T06:21:33.515Z,95000.50
2024-01-04T06:22:34.977Z,94998.25
2024-01-04T06:23:36.558Z,95001.69
2024-01-04T06:24:38.097Z,94997.41
2024-01-04T06:25:39.514Z,95004.97
2024-01-04T06:26:41.066Z,94993.75
2024-01-04T06:27:42.692Z,94996.66
2024-01-04T06:28:44.250Z,95004.97
2024-01-04T06:29:45.945Z,95003.47
2024-01-04T06:30:48.713Z,95012.03
2024-01-04T06:31:50.446Z,95003.88
2024-01-04T06:32:52.090Z,95009.84
2024-01-04T06:33:53.840Z,95008.63
2024-01-04T06:34:55.604Z,95006.72
2024-01-04T06:35:59.109Z,95002.44
2024-01-04T06:37:00.838Z,95009.38
2024-01-04T06:38:05.298Z,95003.28
2024-01-04T06:39:07.110Z,94993.06
2024-01-04T06:40:09.748Z,95019.59
2024-01-04T06:41:11.958Z,95013.22
2024-01-04T06:42:16.024Z,95017.91
2024-01-04T06:43:17.681Z,95025.47
2024-01-04T06:44:19.875Z,95025.59
2024-01-04T06:45:23.978Z,95021.94
2024-01-04T06:46:25.573Z,95025.41
2024-01-04T06:47:27.264Z,95029.50
2024-01-04T06:48:29.166Z,95036.44
2024-01-04T06:49:30.804Z,95023.59
2024-01-04T06:50:32.444Z,95036.00
2024-01-04T06:51:33.947Z,95034.78
2024-01-04T06:52:35.449Z,95040.91
2024-01-04T06:53:36.961Z,95041.47
2024-01-04T06:54:38.521Z,95045.78
2024-01-04T06:55:39.982Z,95041.66
2024-01-04T06:56:41.548Z,95044.31
2024-01-04T06:57:43.190Z,95037.84
2024-01-04T06:58:45.758Z,95041.28
2024-01-04T06:59:47.183Z,95047.78
2024-01-04T07:00:48.802Z,95051.00
2024-01-04T07:01:50.293Z,95056.28
2024-01-04T07:02:52.954Z,95058.94
2024-01-04T07:03:54.492Z,95062.03
2024-01-04T07:04:55.984Z,95058.00
2024-01-04T07:05:57.514Z,95053.00
2024-01-04T07:06:59.110Z,95059.53
2024-01-04T07:08:00.532Z,95066.25
2024-01-04T07:09:02.049Z,95068.47
2024-01-04T07:10:04.088Z,95060.91
2024-01-04T07:11:06.577Z,95066.44
2024-01-04T07:12:09.212Z,95052.56
2024-01-04T07:13:10.820Z,95065.16
2024-01-04T07:14:12.231Z,95051.88
2024-01-04T07:15:14.017Z,95050.25
2024-01-04T07:16:17.111Z,95056.34
2024-01-04T07:17:18.596Z,95061.06
2024-01-04T07:18:20.238Z,95064.97
2024-01-04T07:19:23.668Z,95076.47
2024-01-04T07:20:26.315Z,95065.81
2024-01-04T07:21:28.203Z,95070.28
2024-01-04T07:22:29.743Z,95077.47
2024-01-04T07:23:31.879Z,95081.31
2024-01-04T07:24:33.334Z,95080.75
2024-01-04T07:25:35.293Z,95076.81
2024-01-04T07:26:37.249Z,95084.97
2024-01-04T07:27:38.726Z,95087.88
2024-01-04T07:28:41.395Z,95075.56
2024-01-04T07:29:42.993Z,95088.25
2024-01-04T07:30:44.699Z,95086.81
2024-01-04T07:31:46.162Z,95083.50
2024-01-04T07:32:47.673Z,95087.38
2024-01-04T07:33:49.892Z,95093.16
2024-01-04T07:35:00.402Z,95084.84
2024-01-04T07:36:09.707Z,95089.06
2024-01-04T07:37:11.857Z,95080.38
2024-01-04T07:38:13.365Z,95089.13
2024-01-04T07:39:16.507Z,95089.91
2024-01-04T07:40:18.260Z,95097.47
2024-01-04T07:41:19.750Z,95091.28
2024-01-04T07:42:22.120Z,95083.16
2024-01-04T07:43:23.640Z,95097.66
2024-01-04T07:44:25.158Z,95085.81
2024-01-04T07:45:26.641Z,95087.59
2024-01-04T07:46:28.182Z,95087.00
2024-01-04T07:47:29.725Z,95089.44
2024-01-04T07:48:31.219Z,95086.81
2024-01-04T07:49:33.256Z,95093.53
2024-01-04T07:50:34.818Z,95088.25
2024-01-04T07:51:36.343Z,95089.44
2024-01-04T07:52:37.956Z,95086.16
2024-01-04T07:53:41.158Z,95083.50
2024-01-04T07:54:48.342Z,95081.50
2024-01-04T07:55:53.076Z,95088.00
2024-01-04T07:56:54.560Z,95089.06
2024-01-04T07:57:55.978Z,95084.22
2024-01-04T07:58:57.422Z,95088.31
2024-01-04T07:59:59.177Z,95093.50
2024-01-04T08:01:02.770Z,95083.72
2024-01-04T08:02:04.900Z,95082.13
2024-01-04T08:03:06.556Z,95077.28
2024-01-04T08:04:08.143Z,95079.09
2024-01-04T08:05:11.098Z,95077.72
2024-01-04T08:06:12.639Z,95074.66
2024-01-04T08:07:14.518Z,95071.53
2024-01-04T08:08:16.120Z,95070.94
2024-01-04T08:09:20.964Z,95073.78
2024-01-04T08:10:22.540Z,95073.69
2024-01-04T08:11:24.848Z,95065.50
2024-01-04T08:12:26.323Z,95083.84
2024-01-04T08:13:28.418Z,95071.00
2024-01-04T08:14:31.948Z,95076.47
2024-01-04T08:15:34.871Z,95077.94
2024-01-04T08:16:37.338Z,95081.13
2024-01-04T08:17:39.253Z,95076.81
2024-01-04T08:18:41.062Z,95086.53
2024-01-04T08:19:42.790Z,95078.06
2024-01-04T08:20:44.385Z,95085.53
2024-01-04T08:21:45.971Z,95098.78
2024-01-04T08:22:47.433Z,95084.34
2024-01-04T08:23:51.884Z,95086.00
2024-01-04T08:24:53.318Z,95085.41
2024-01-04T08:25:56.637Z,95089.91
2024-01-04T08:26:59.222Z,95089.94
2024-01-04T08:28:00.840Z,95095.69
2024-01-04T08:29:02.400Z,95094.31
2024-01-04T08:30:04.246Z,95094.97
2024-01-04T08:31:05.888Z,95105.34
2024-01-04T08:32:07.460Z,95100.25
2024-01-04T08:33:10.199Z,95103.97
2024-01-04T08:34:11.838Z,95095.00
2024-01-04T08:35:13.825Z,95099.94
2024-01-04T08:36:15.348Z,95098.47
2024-01-04T08:37:19.573Z,95100.69
2024-01-04T08:38:21.142Z,95106.56
2024-01-04T08:39:22.729Z,95110.00
2024-01-04T08:40:24.357Z,95112.03
2024-01-04T08:41:26.311Z,95114.03
2024-01-04T08:42:27.914Z,95112.66
2024-01-04T08:43:29.611Z,95111.84
2024-01-04T08:44:31.089Z,95121.06
2024-01-04T08:45:32.991Z,95119.28
2024-01-04T08:46:38.698Z,95120.66
2024-01-04T08:47:41.319Z,95123.59
2024-01-04T08:48:43.128Z,95121.13
2024-01-04T08:49:44.753Z,95127.03
2024-01-04T08:50:46.539Z,95124.38
2024-01-04T08:51:48.107Z,95126.28
2024-01-04T08:52:49.577Z,95141.63
2024-01-04T08:53:51.135Z,95140.03
2024-01-04T08:54:52.604Z,95134.16
2024-01-04T08:55:54.085Z,95136.88
2024-01-04T08:56:55.785Z,95138.06
2024-01-04T08:57:57.701Z,95137.50
2024-01-04T08:58:59.187Z,95152.38
2024-01-04T09:00:00.754Z,95149.13
2024-01-04T09:01:02.402Z,95157.25
2024-01-04T09:02:04.422Z,95161.09
2024-01-04T09:03:06.083Z,95160.03
2024-01-04T09:04:07.757Z,95161.63
2024-01-04T09:05:09.857Z,95167.09
2024-01-04T09:06:13.381Z,95173.13
2024-01-04T09:07:15.798Z,95170.50
2024-01-04T09:08:17.394Z,95165.38
2024-01-04T09:09:19.106Z,95165.38
2024-01-04T09:10:20.885Z,95165.88
2024-01-04T09:11:22.973Z,95165.06
2024-01-04T09:12:24.489Z,95159.59
2024-01-04T09:13:26.018Z,95162.06
2024-01-04T09:14:27.462Z,95171.22
2024-01-04T09:15:29.065Z,95176.69
2024-01-04T09:16:30.552Z,95163.19
2024-01-04T09:17:32.022Z,95171.88
2024-01-04T09:18:36.650Z,95166.94
2024-01-04T09:19:40.629Z,95171.63
2024-01-04T09:20:42.214Z,95178.19
2024-01-04T09:21:45.036Z,95182.72
2024-01-04T09:22:46.693Z,95178.88
2024-01-04T09:23:48.314Z,95190.94
2024-01-04T09:24:50.475Z,95192.28
2024-01-04T09:25:52.029Z,95176.78
2024-01-04T09:26:53.799Z,95184.72
2024-01-04T09:27:55.765Z,95185.53
2024-01-04T09:28:57.401Z,95190.81
2024-01-04T09:29:58.922Z,95176.41
2024-01-04T09:31:00.472Z,95187.63
2024-01-04T09:32:02.553Z,95188.72
2024-01-04T09:33:07.291Z,95188.72
2024-01-04T09:34:09.623Z,95188.94
2024-01-04T09:35:11.242Z,95187.84
2024-01-04T09:36:12.978Z,95192.13
2024-01-04T09:37:14.524Z,95194.41
2024-01-04T09:38:16.021Z,95202.16
2024-01-04T09:39:20.185Z,95201.63
2024-01-04T09:40:22.084Z,95203.22
2024-01-04T09:41:27.939Z,95194.94
2024-01-04T09:42:35.518Z,95199.78
2024-01-04T09:43:38.424Z,95201.03
2024-01-04T09:44:42.581Z,95193.72
2024-01-04T09:45:44.749Z,95207.22
2024-01-04T09:46:46.749Z,95208.41
2024-01-04T09:47:51.569Z,95204.50
2024-01-04T09:49:02.905Z,95204.88
2024-01-04T09:50:05.281Z,95212.75
2024-01-04T09:51:08.129Z,95208.31
2024-01-04T09:52:13.022Z,95214.88
2024-01-04T09:53:15.164Z,95213.28
2024-01-04T09:54:18.093Z,95221.47
2024-01-04T09:55:21.845Z,95215.81
2024-01-04T09:56:24.288Z,95225.91
2024-01-04T09:57:25.863Z,95223.34
2024-01-04T09:58:27.356Z,95233.63
2024-01-04T09:59:31.096Z,95234.34
2024-01-04T10:00:32.662Z,95226.13
2024-01-04T10:01:36.846Z,95223.34
2024-01-04T10:02:44.060Z,95227.78
2024-01-04T10:03:48.230Z,95220.66
2024-01-04T10:04:54.361Z,95220.25
2024-01-04T10:05:58.094Z,95226.81
2024-01-04T10:07:06.706Z,95224.56
2024-01-04T10:08:31.732Z,95221.72
2024-01-04T10:09:39.665Z,95219.41
2024-01-04T10:10:44.065Z,95221.53
2024-01-04T10:11:54.500Z,95213.56
2024-01-04T10:12:57.372Z,95206.22
2024-01-04T10:13:59.262Z,95205.69
2024-01-04T10:15:00.901Z,95216.34
2024-01-04T10:16:06.744Z,95206.28
2024-01-04T10:17:11.059Z,95219.19
2024-01-04T10:18:14.392Z,95215.50
2024-01-04T10:19:16.446Z,95215.53
2024-01-04T10:20:17.997Z,95217.34
2024-01-04T10:21:19.634Z,95212.63
2024-01-04T10:22:24.824Z,95224.09
2024-01-04T10:23:26.991Z,95228.97
2024-01-04T10:24:29.799Z,95225.50
2024-01-04T10:25:31.323Z,95233.22
2024-01-04T10:26:34.057Z,95237.66
2024-01-04T10:27:35.610Z,95228.28
2024-01-04T10:28:39.454Z,95229.22
2024-01-04T10:29:43.036Z,95225.09
2024-01-04T10:30:44.580Z,95232.72
2024-01-04T10:31:47.162Z,95230.28
2024-01-04T10:32:52.242Z,95232.13
2024-01-04T10:34:00.893Z,95227.84
2024-01-04T10:35:10.307Z,95231.19
2024-01-04T10:36:13.447Z,95236.31
2024-01-04T10:37:23.156Z,95235.72
2024-01-04T10:38:25.292Z,95240.41
2024-01-04T10:39:26.774Z,95238.97
2024-01-04T10:40:31.929Z,95240.34
2024-01-04T10:41:34.607Z,95239.16
2024-01-04T10:42:36.201Z,95250.16
2024-01-04T10:43:37.674Z,95251.41
2024-01-04T10:44:40.590Z,95245.03
2024-01-04T10:45:42.494Z,95246.69
2024-01-04T10:46:43.988Z,95246.47
2024-01-04T10:47:49.527Z,95241.78
2024-01-04T10:48:51.363Z,95242.53
2024-01-04T10:49:59.389Z,95250.28
2024-01-04T10:51:04.451Z,95256.38
2024-01-04T10:52:10.283Z,95248.00
2024-01-04T10:53:14.856Z,95250.22
2024-01-04T10:54:16.905Z,95251.47
2024-01-04T10:55:21.242Z,95251.66
2024-01-04T10:56:23.920Z,95258.81
2024-01-04T10:57:27.045Z,95245.91
2024-01-04T10:58:30.395Z,95255.44
2024-01-04T10:59:33.665Z,95255.28
2024-01-04T11:00:35.605Z,95255.44
2024-01-04T11:01:37.384Z,95252.19
2024-01-04T11:02:40.227Z,95259.19
2024-01-04T11:03:43.542Z,95255.47
2024-01-04T11:04:46.412Z,95257.50
2024-01-04T11:05:48.531Z,95259.34
2024-01-04T11:06:51.324Z,95248.44
2024-01-04T11:07:55.469Z,95248.44
2024-01-04T11:08:57.460Z,95244.63
2024-01-04T11:09:59.327Z,95247.06
2024-01-04T11:11:02.262Z,95248.31
2024-01-04T11:12:06.512Z,95250.34
2024-01-04T11:13:08.198Z,95245.03
2024-01-04T11:14:09.668Z,95246.38
2024-01-04T11:15:15.400Z,95250.66
2024-01-04T11:16:32.150Z,95244.69
2024-01-04T11:18:04.641Z,95247.97
2024-01-04T11:19:21.628Z,95250.56
2024-01-04T11:20:43.398Z,95253.88
2024-01-04T11:21:56.321Z,95255.03
2024-01-04T11:23:21.693Z,95259.28
2024-01-04T11:24:57.153Z,95254.16
2024-01-04T11:26:13.897Z,95251.25
2024-01-04T11:27:18.345Z,95248.00
2024-01-04T11:28:29.672Z,95250.66
2024-01-04T11:29:40.776Z,95259.50
2024-01-04T11:30:42.513Z,95254.91
2024-01-04T11:31:44.671Z,95249.94
2024-01-04T11:32:46.593Z,95246.03
2024-01-04T11:33:50.856Z,95247.88
2024-01-04T11:34:52.542Z,95263.41
2024-01-04T11:35:54.421Z,95249.88
2024-01-04T11:37:12.926Z,95256.16
2024-01-04T11:38:23.302Z,95243.25
2024-01-04T11:39:28.038Z,95241.00
2024-01-04T11:40:30.622Z,95240.19
2024-01-04T11:41:36.442Z,95245.78
2024-01-04T11:42:42.150Z,95238.25
2024-01-04T11:43:47.803Z,95235.69
2024-01-04T11:44:50.949Z,95242.34
2024-01-04T11:45:52.444Z,95241.94
2024-01-04T11:47:04.519Z,95242.94
2024-01-04T11:48:11.458Z,95230.94
2024-01-04T11:49:15.228Z,95241.78
2024-01-04T11:50:21.178Z,95247.97
2024-01-04T11:51:42.701Z,95241.00
2024-01-04T11:52:46.459Z,95246.44
2024-01-04T11:53:48.036Z,95232.47
2024-01-04T11:54:50.126Z,95231.97
2024-01-04T11:55:51.626Z,95240.38
2024-01-04T11:56:53.135Z,95230.56
2024-01-04T11:58:04.580Z,95239.59
2024-01-04T11:59:18.816Z,95243.88
2024-01-04T12:00:21.020Z,95227.19
2024-01-04T12:01:24.429Z,95245.44
2024-01-04T12:02:26.186Z,95247.66
2024-01-04T12:03:29.981Z,95245.34
2024-01-04T12:04:33.133Z,95233.81
2024-01-04T12:05:35.372Z,95241.78
2024-01-04T12:06:40.479Z,95233.69
2024-01-04T12:07:41.918Z,95236.22
2024-01-04T12:08:43.509Z,95228.44
2024-01-04T12:09:57.408Z,95225.41
2024-01-04T12:11:02.069Z,95225.47
2024-01-04T12:12:04.339Z,95226.09
2024-01-04T12:13:05.834Z,95235.13
2024-01-04T12:14:08.148Z,95227.00
2024-01-04T12:15:09.898Z,95237.38
2024-01-04T12:16:11.365Z,95232.06